sensor_id;sensor_type;location;lat;lon;timestamp;temperature;humidity
14053;DHT22;7101;51.600;7.310;2024-02-04T00:00:21;10.10;99.90
14053;DHT22;7101;51.600;7.310;2024-02-04T00:02:48;10.10;99.90
14053;DHT22;7101;51.600;7.310;2024-02-04T00:05:14;10.10;99.90
14053;DHT22;7101;51.600;7.310;2024-02-04T00:07:41;10.10;99.90
14053;DHT22;7101;51.600;7.310;2024-02-04T00:10:08;10.10;99.90
14053;DHT22;7101;51.600;7.310;2024-02-04T00:12:35;10.10;99.90
14053;DHT22;7101;51.600;7.310;2024-02-04T00:15:02;10.10;99.90
14053;DHT22;7101;51.600;7.310;2024-02-04T00:17:31;10.20;99.90
14053;DHT22;7101;51.600;7.310;2024-02-04T00:19:59;10.10;99.90
14053;DHT22;7101;51.600;7.310;2024-02-04T00:22:26;10.10;99.90
14053;DHT22;7101;51.600;7.310;2024-02-04T00:24:53;10.10;99.90
14053;DHT22;7101;51.600;7.310;2024-02-04T00:27:20;10.10;99.90
14053;DHT22;7101;51.600;7.310;2024-02-04T00:29:46;10.10;99.90
14053;DHT22;7101;51.600;7.310;2024-02-04T00:32:13;10.10;99.90
14053;DHT22;7101;51.600;7.310;2024-02-04T00:34:41;10.10;99.90
14053;DHT22;7101;51.600;7.310;2024-02-04T00:37:08;10.10;99.90
14053;DHT22;7101;51.600;7.310;2024-02-04T00:39:35;10.10;99.90
14053;DHT22;7101;51.600;7.310;2024-02-04T00:42:01;10.10;99.90
14053;DHT22;7101;51.600;7.310;2024-02-04T00:44:29;10.10;99.90
14053;DHT22;7101;51.600;7.310;2024-02-04T00:46:56;10.10;99.90
14053;DHT22;7101;51.600;7.310;2024-02-04T00:49:23;10.10;99.90
14053;DHT22;7101;51.600;7.310;2024-02-04T00:51:53;10.10;99.90
14053;DHT22;7101;51.600;7.310;2024-02-04T00:54:19;10.00;99.90
14053;DHT22;7101;51.600;7.310;2024-02-04T00:56:46;10.10;99.90
14053;DHT22;7101;51.600;7.310;2024-02-04T00:59:13;10.00;99.90
14053;DHT22;7101;51.600;7.310;2024-02-04T01:01:40;10.00;99.90
14053;DHT22;7101;51.600;7.310;2024-02-04T01:04:07;10.00;99.90
14053;DHT22;7101;51.600;7.310;2024-02-04T01:06:34;10.00;99.90
14053;DHT22;7101;51.600;7.310;2024-02-04T01:09:02;9.90;99.90
14053;DHT22;7101;51.600;7.310;2024-02-04T01:11:29;9.90;99.90
14053;DHT22;7101;51.600;7.310;2024-02-04T01:13:57;9.90;99.90
14053;DHT22;7101;51.600;7.310;2024-02-04T01:16:23;9.90;99.90
14053;DHT22;7101;51.600;7.310;2024-02-04T01:18:50;9.90;99.90
14053;DHT22;7101;51.600;7.310;2024-02-04T01:21:17;9.90;99.90
14053;DHT22;7101;51.600;7.310;2024-02-04T01:23:44;9.80;99.90
14053;DHT22;7101;51.600;7.310;2024-02-04T01:26:12;9.80;99.90
14053;DHT22;7101;51.600;7.310;2024-02-04T01:28:39;9.80;99.90
14053;DHT22;7101;51.600;7.310;2024-02-04T01:31:05;9.80;99.90
14053;DHT22;7101;51.600;7.310;2024-02-04T01:33:32;9.80;99.90
14053;DHT22;7101;51.600;7.310;2024-02-04T01:35:59;9.80;99.90
14053;DHT22;7101;51.600;7.310;2024-02-04T01:38:25;9.80;99.90
14053;DHT22;7101;51.600;7.310;2024-02-04T01:40:52;9.80;99.90
14053;DHT22;7101;51.600;7.310;2024-02-04T01:43:20;9.80;99.90
14053;DHT22;7101;51.600;7.310;2024-02-04T01:45:49;9.80;99.90
14053;DHT22;7101;51.600;7.310;2024-02-04T01:48:16;9.80;99.90
14053;DHT22;7101;51.600;7.310;2024-02-04T01:50:43;9.80;99.90
14053;DHT22;7101;51.600;7.310;2024-02-04T01:53:10;9.80;99.90
14053;DHT22;7101;51.600;7.310;2024-02-04T01:55:39;9.80;99.90
14053;DHT22;7101;51.600;7.310;2024-02-04T01:58:06;9.80;99.90
14053;DHT22;7101;51.600;7.310;2024-02-04T02:00:34;9.80;99.90
14053;DHT22;7101;51.600;7.310;2024-02-04T02:03:02;9.80;99.90
14053;DHT22;7101;51.600;7.310;2024-02-04T02:05:32;9.80;99.90
14053;DHT22;7101;51.600;7.310;2024-02-04T02:07:59;9.80;99.90
14053;DHT22;7101;51.600;7.310;2024-02-04T02:10:26;9.80;99.90
14053;DHT22;7101;51.600;7.310;2024-02-04T02:12:58;9.80;99.90
14053;DHT22;7101;51.600;7.310;2024-02-04T02:15:28;9.80;99.90
14053;DHT22;7101;51.600;7.310;2024-02-04T02:18:01;9.80;99.90
14053;DHT22;7101;51.600;7.310;2024-02-04T02:20:35;9.80;99.90
14053;DHT22;7101;51.600;7.310;2024-02-04T02:23:06;9.80;99.90
14053;DHT22;7101;51.600;7.310;2024-02-04T02:25:36;9.80;99.90
14053;DHT22;7101;51.600;7.310;2024-02-04T02:28:04;9.90;99.90
14053;DHT22;7101;51.600;7.310;2024-02-04T02:30:30;9.90;99.90
14053;DHT22;7101;51.600;7.310;2024-02-04T02:32:58;9.90;99.90
14053;DHT22;7101;51.600;7.310;2024-02-04T02:35:26;9.90;99.90
14053;DHT22;7101;51.600;7.310;2024-02-04T02:37:59;9.90;99.90
14053;DHT22;7101;51.600;7.310;2024-02-04T02:40:33;9.90;99.90
14053;DHT22;7101;51.600;7.310;2024-02-04T02:43:04;9.90;99.90
14053;DHT22;7101;51.600;7.310;2024-02-04T02:45:32;9.90;99.90
14053;DHT22;7101;51.600;7.310;2024-02-04T02:48:00;9.90;99.90
14053;DHT22;7101;51.600;7.310;2024-02-04T02:50:27;9.90;99.90
14053;DHT22;7101;51.600;7.310;2024-02-04T02:52:54;9.90;99.90
14053;DHT22;7101;51.600;7.310;2024-02-04T02:55:21;10.00;99.90
14053;DHT22;7101;51.600;7.310;2024-02-04T02:57:48;10.00;99.90
14053;DHT22;7101;51.600;7.310;2024-02-04T03:00:16;9.90;99.90
14053;DHT22;7101;51.600;7.310;2024-02-04T03:02:43;9.90;99.90
14053;DHT22;7101;51.600;7.310;2024-02-04T03:05:10;9.90;99.90
14053;DHT22;7101;51.600;7.310;2024-02-04T03:07:37;9.90;99.90
14053;DHT22;7101;51.600;7.310;2024-02-04T03:10:04;9.90;99.90
14053;DHT22;7101;51.600;7.310;2024-02-04T03:12:31;10.00;99.90
14053;DHT22;7101;51.600;7.310;2024-02-04T03:14:58;10.00;99.90
14053;DHT22;7101;51.600;7.310;2024-02-04T03:17:26;10.00;99.90
14053;DHT22;7101;51.600;7.310;2024-02-04T03:19:53;10.00;99.90
14053;DHT22;7101;51.600;7.310;2024-02-04T03:22:20;10.00;99.90
14053;DHT22;7101;51.600;7.310;2024-02-04T03:24:47;10.00;99.90
14053;DHT22;7101;51.600;7.310;2024-02-04T03:27:15;10.00;99.90
14053;DHT22;7101;51.600;7.310;2024-02-04T03:29:41;10.00;99.90
14053;DHT22;7101;51.600;7.310;2024-02-04T03:32:10;10.00;99.90
14053;DHT22;7101;51.600;7.310;2024-02-04T03:34:38;9.90;99.90
14053;DHT22;7101;51.600;7.310;2024-02-04T03:37:05;9.90;99.90
14053;DHT22;7101;51.600;7.310;2024-02-04T03:39:32;9.90;99.90
14053;DHT22;7101;51.600;7.310;2024-02-04T03:41:59;10.00;99.90
14053;DHT22;7101;51.600;7.310;2024-02-04T03:44:25;10.00;99.90
14053;DHT22;7101;51.600;7.310;2024-02-04T03:46:52;10.00;99.90
14053;DHT22;7101;51.600;7.310;2024-02-04T03:49:20;9.90;99.90
14053;DHT22;7101;51.600;7.310;2024-02-04T03:51:48;10.00;99.90
14053;DHT22;7101;51.600;7.310;2024-02-04T03:54:16;10.00;99.90
14053;DHT22;7101;51.600;7.310;2024-02-04T03:56:44;10.00;99.90
14053;DHT22;7101;51.600;7.310;2024-02-04T03:59:11;10.00;99.90
14053;DHT22;7101;51.600;7.310;2024-02-04T04:01:38;10.00;99.90
14053;DHT22;7101;51.600;7.310;2024-02-04T04:04:05;9.90;99.90
14053;DHT22;7101;51.600;7.310;2024-02-04T04:06:32;10.00;99.90
14053;DHT22;7101;51.600;7.310;2024-02-04T04:09:00;10.00;99.90
14053;DHT22;7101;51.600;7.310;2024-02-04T04:11:27;9.90;99.90
14053;DHT22;7101;51.600;7.310;2024-02-04T04:13:54;10.00;99.90
14053;DHT22;7101;51.600;7.310;2024-02-04T04:16:21;10.00;99.90
14053;DHT22;7101;51.600;7.310;2024-02-04T04:18:48;10.00;99.90
14053;DHT22;7101;51.600;7.310;2024-02-04T04:21:15;10.00;99.90
14053;DHT22;7101;51.600;7.310;2024-02-04T04:23:42;10.00;99.90
14053;DHT22;7101;51.600;7.310;2024-02-04T04:26:10;10.00;99.90
14053;DHT22;7101;51.600;7.310;2024-02-04T04:28:37;10.00;99.90
14053;DHT22;7101;51.600;7.310;2024-02-04T04:31:04;10.00;99.90
14053;DHT22;7101;51.600;7.310;2024-02-04T04:33:31;10.00;99.90
14053;DHT22;7101;51.600;7.310;2024-02-04T04:35:58;10.00;99.90
14053;DHT22;7101;51.600;7.310;2024-02-04T04:38:25;10.00;99.90
14053;DHT22;7101;51.600;7.310;2024-02-04T04:40:51;10.00;99.90
14053;DHT22;7101;51.600;7.310;2024-02-04T04:43:20;10.00;99.90
14053;DHT22;7101;51.600;7.310;2024-02-04T04:45:49;10.00;99.90
14053;DHT22;7101;51.600;7.310;2024-02-04T04:48:16;10.00;99.90
14053;DHT22;7101;51.600;7.310;2024-02-04T04:50:43;10.00;99.90
14053;DHT22;7101;51.600;7.310;2024-02-04T04:53:10;10.00;99.90
14053;DHT22;7101;51.600;7.310;2024-02-04T04:55:37;10.00;99.90
14053;DHT22;7101;51.600;7.310;2024-02-04T04:58:04;10.10;99.90
14053;DHT22;7101;51.600;7.310;2024-02-04T05:00:32;10.10;99.90
14053;DHT22;7101;51.600;7.310;2024-02-04T05:02:59;10.10;99.90
14053;DHT22;7101;51.600;7.310;2024-02-04T05:05:26;10.10;99.90
14053;DHT22;7101;51.600;7.310;2024-02-04T05:07:53;10.10;99.90
14053;DHT22;7101;51.600;7.310;2024-02-04T05:10:21;10.10;99.90
14053;DHT22;7101;51.600;7.310;2024-02-04T05:12:48;10.10;99.90
14053;DHT22;7101;51.600;7.310;2024-02-04T05:15:16;10.10;99.90
14053;DHT22;7101;51.600;7.310;2024-02-04T05:17:44;10.10;99.90
14053;DHT22;7101;51.600;7.310;2024-02-04T05:20:11;10.10;99.90
14053;DHT22;7101;51.600;7.310;2024-02-04T05:22:37;10.10;99.90
14053;DHT22;7101;51.600;7.310;2024-02-04T05:25:05;10.10;99.90
14053;DHT22;7101;51.600;7.310;2024-02-04T05:27:36;10.00;99.90
14053;DHT22;7101;51.600;7.310;2024-02-04T05:30:03;10.10;99.90
14053;DHT22;7101;51.600;7.310;2024-02-04T05:32:30;10.10;99.90
14053;DHT22;7101;51.600;7.310;2024-02-04T05:34:58;10.00;99.90
14053;DHT22;7101;51.600;7.310;2024-02-04T05:37:25;9.90;99.90
14053;DHT22;7101;51.600;7.310;2024-02-04T05:39:52;9.90;99.90
14053;DHT22;7101;51.600;7.310;2024-02-04T05:42:19;9.90;99.90
14053;DHT22;7101;51.600;7.310;2024-02-04T05:44:45;9.90;99.90
14053;DHT22;7101;51.600;7.310;2024-02-04T05:47:12;9.90;99.90
14053;DHT22;7101;51.600;7.310;2024-02-04T05:49:39;9.80;99.90
14053;DHT22;7101;51.600;7.310;2024-02-04T05:52:07;9.90;99.90
14053;DHT22;7101;51.600;7.310;2024-02-04T05:54:37;9.80;99.90
14053;DHT22;7101;51.600;7.310;2024-02-04T05:57:04;9.80;99.90
14053;DHT22;7101;51.600;7.310;2024-02-04T05:59:31;9.80;99.90
14053;DHT22;7101;51.600;7.310;2024-02-04T06:01:58;9.80;99.90
14053;DHT22;7101;51.600;7.310;2024-02-04T06:04:25;9.80;99.90
14053;DHT22;7101;51.600;7.310;2024-02-04T06:06:51;9.80;99.90
14053;DHT22;7101;51.600;7.310;2024-02-04T06:09:20;9.80;99.90
14053;DHT22;7101;51.600;7.310;2024-02-04T06:11:47;9.80;99.90
14053;DHT22;7101;51.600;7.310;2024-02-04T06:14:13;9.80;99.90
14053;DHT22;7101;51.600;7.310;2024-02-04T06:16:40;9.80;99.90
14053;DHT22;7101;51.600;7.310;2024-02-04T06:19:07;9.80;99.90
14053;DHT22;7101;51.600;7.310;2024-02-04T06:21:34;9.80;99.90
14053;DHT22;7101;51.600;7.310;2024-02-04T06:24:01;9.80;99.90
14053;DHT22;7101;51.600;7.310;2024-02-04T06:26:29;9.70;99.90
14053;DHT22;7101;51.600;7.310;2024-02-04T06:28:56;9.70;99.90
14053;DHT22;7101;51.600;7.310;2024-02-04T06:31:23;9.70;99.90
14053;DHT22;7101;51.600;7.310;2024-02-04T06:33:49;9.70;99.90
14053;DHT22;7101;51.600;7.310;2024-02-04T06:36:17;9.70;99.90
14053;DHT22;7101;51.600;7.310;2024-02-04T06:38:43;9.70;99.90
14053;DHT22;7101;51.600;7.310;2024-02-04T06:41:10;9.70;99.90
14053;DHT22;7101;51.600;7.310;2024-02-04T06:43:39;9.80;99.90
14053;DHT22;7101;51.600;7.310;2024-02-04T06:46:06;9.70;99.90
14053;DHT22;7101;51.600;7.310;2024-02-04T06:48:33;9.80;99.90
14053;DHT22;7101;51.600;7.310;2024-02-04T06:50:59;9.90;99.90
14053;DHT22;7101;51.600;7.310;2024-02-04T06:53:27;9.80;99.90
14053;DHT22;7101;51.600;7.310;2024-02-04T06:55:54;9.80;99.90
14053;DHT22;7101;51.600;7.310;2024-02-04T06:58:20;9.80;99.90
14053;DHT22;7101;51.600;7.310;2024-02-04T07:00:49;9.80;99.90
14053;DHT22;7101;51.600;7.310;2024-02-04T07:03:15;9.80;99.90
14053;DHT22;7101;51.600;7.310;2024-02-04T07:05:42;9.80;99.90
14053;DHT22;7101;51.600;7.310;2024-02-04T07:08:12;9.80;99.90
14053;DHT22;7101;51.600;7.310;2024-02-04T07:10:39;9.80;99.90
14053;DHT22;7101;51.600;7.310;2024-02-04T07:13:06;9.80;99.90
14053;DHT22;7101;51.600;7.310;2024-02-04T07:15:33;9.90;99.90
14053;DHT22;7101;51.600;7.310;2024-02-04T07:18:01;9.90;99.90
14053;DHT22;7101;51.600;7.310;2024-02-04T07:20:28;9.90;99.90
14053;DHT22;7101;51.600;7.310;2024-02-04T07:22:55;9.90;99.90
14053;DHT22;7101;51.600;7.310;2024-02-04T07:25:22;10.00;99.90
14053;DHT22;7101;51.600;7.310;2024-02-04T07:27:49;10.00;99.90
14053;DHT22;7101;51.600;7.310;2024-02-04T07:30:16;10.00;99.90
14053;DHT22;7101;51.600;7.310;2024-02-04T07:32:43;10.00;99.90
14053;DHT22;7101;51.600;7.310;2024-02-04T07:35:12;10.00;99.90
14053;DHT22;7101;51.600;7.310;2024-02-04T07:37:38;10.00;99.90
14053;DHT22;7101;51.600;7.310;2024-02-04T07:40:06;10.00;99.90
14053;DHT22;7101;51.600;7.310;2024-02-04T07:42:33;10.10;99.90
14053;DHT22;7101;51.600;7.310;2024-02-04T07:45:00;10.00;99.90
14053;DHT22;7101;51.600;7.310;2024-02-04T07:47:33;10.10;99.90
14053;DHT22;7101;51.600;7.310;2024-02-04T07:50:00;10.00;99.90
14053;DHT22;7101;51.600;7.310;2024-02-04T07:52:28;10.10;99.90
14053;DHT22;7101;51.600;7.310;2024-02-04T07:54:55;10.10;99.90
14053;DHT22;7101;51.600;7.310;2024-02-04T07:57:22;10.10;99.90
14053;DHT22;7101;51.600;7.310;2024-02-04T07:59:49;10.10;99.90
14053;DHT22;7101;51.600;7.310;2024-02-04T08:02:16;10.10;99.90
14053;DHT22;7101;51.600;7.310;2024-02-04T08:04:43;10.10;99.90
14053;DHT22;7101;51.600;7.310;2024-02-04T08:07:10;10.10;99.90
14053;DHT22;7101;51.600;7.310;2024-02-04T08:09:38;10.10;99.90
14053;DHT22;7101;51.600;7.310;2024-02-04T08:12:05;10.10;99.90
14053;DHT22;7101;51.600;7.310;2024-02-04T08:14:33;10.10;99.90
14053;DHT22;7101;51.600;7.310;2024-02-04T08:16:59;10.10;99.90
14053;DHT22;7101;51.600;7.310;2024-02-04T08:19:28;10.10;99.90
14053;DHT22;7101;51.600;7.310;2024-02-04T08:21:55;10.10;99.90
14053;DHT22;7101;51.600;7.310;2024-02-04T08:24:21;10.10;99.90
14053;DHT22;7101;51.600;7.310;2024-02-04T08:26:50;10.10;99.90
14053;DHT22;7101;51.600;7.310;2024-02-04T08:29:17;10.10;99.90
14053;DHT22;7101;51.600;7.310;2024-02-04T08:31:44;10.10;99.90
14053;DHT22;7101;51.600;7.310;2024-02-04T08:34:11;10.10;99.90
14053;DHT22;7101;51.600;7.310;2024-02-04T08:36:38;10.20;99.90
14053;DHT22;7101;51.600;7.310;2024-02-04T08:39:05;10.20;99.90
14053;DHT22;7101;51.600;7.310;2024-02-04T08:41:31;10.20;99.90
14053;DHT22;7101;51.600;7.310;2024-02-04T08:44:00;10.20;99.90
14053;DHT22;7101;51.600;7.310;2024-02-04T08:46:26;10.20;99.90
14053;DHT22;7101;51.600;7.310;2024-02-04T08:48:53;10.30;99.90
14053;DHT22;7101;51.600;7.310;2024-02-04T08:51:20;10.30;99.90
14053;DHT22;7101;51.600;7.310;2024-02-04T08:53:47;10.30;99.90
14053;DHT22;7101;51.600;7.310;2024-02-04T08:56:14;10.30;99.90
14053;DHT22;7101;51.600;7.310;2024-02-04T08:58:40;10.30;99.90
14053;DHT22;7101;51.600;7.310;2024-02-04T09:01:09;10.30;99.90
14053;DHT22;7101;51.600;7.310;2024-02-04T09:03:35;10.40;99.90
14053;DHT22;7101;51.600;7.310;2024-02-04T09:06:02;10.40;99.90
14053;DHT22;7101;51.600;7.310;2024-02-04T09:08:30;10.30;99.90
14053;DHT22;7101;51.600;7.310;2024-02-04T09:10:57;10.40;99.90
14053;DHT22;7101;51.600;7.310;2024-02-04T09:13:23;10.40;99.90
14053;DHT22;7101;51.600;7.310;2024-02-04T09:15:50;10.50;99.90
14053;DHT22;7101;51.600;7.310;2024-02-04T09:18:19;10.50;99.90
14053;DHT22;7101;51.600;7.310;2024-02-04T09:20:47;10.50;99.90
14053;DHT22;7101;51.600;7.310;2024-02-04T09:23:14;10.50;99.90
14053;DHT22;7101;51.600;7.310;2024-02-04T09:25:41;10.50;99.90
14053;DHT22;7101;51.600;7.310;2024-02-04T09:28:08;10.50;99.90
14053;DHT22;7101;51.600;7.310;2024-02-04T09:30:35;10.50;99.90
14053;DHT22;7101;51.600;7.310;2024-02-04T09:33:02;10.50;99.90
14053;DHT22;7101;51.600;7.310;2024-02-04T09:35:30;10.40;99.90
14053;DHT22;7101;51.600;7.310;2024-02-04T09:37:57;10.40;99.90
14053;DHT22;7101;51.600;7.310;2024-02-04T09:40:23;10.40;99.90
14053;DHT22;7101;51.600;7.310;2024-02-04T09:42:50;10.30;99.90
14053;DHT22;7101;51.600;7.310;2024-02-04T09:45:18;10.30;99.90
14053;DHT22;7101;51.600;7.310;2024-02-04T09:47:45;10.10;99.90
14053;DHT22;7101;51.600;7.310;2024-02-04T09:50:12;10.10;99.90
14053;DHT22;7101;51.600;7.310;2024-02-04T09:52:43;9.90;99.90
14053;DHT22;7101;51.600;7.310;2024-02-04T09:55:15;9.80;99.90
14053;DHT22;7101;51.600;7.310;2024-02-04T09:57:43;9.80;99.90
14053;DHT22;7101;51.600;7.310;2024-02-04T10:00:11;9.60;99.90
14053;DHT22;7101;51.600;7.310;2024-02-04T10:02:40;9.60;99.90
14053;DHT22;7101;51.600;7.310;2024-02-04T10:05:07;9.50;99.90
14053;DHT22;7101;51.600;7.310;2024-02-04T10:07:36;9.40;99.90
14053;DHT22;7101;51.600;7.310;2024-02-04T10:10:05;9.50;99.90
14053;DHT22;7101;51.600;7.310;2024-02-04T10:12:32;9.50;99.90
14053;DHT22;7101;51.600;7.310;2024-02-04T10:15:01;9.40;99.90
14053;DHT22;7101;51.600;7.310;2024-02-04T10:17:30;9.40;99.90
14053;DHT22;7101;51.600;7.310;2024-02-04T10:19:57;9.50;99.90
14053;DHT22;7101;51.600;7.310;2024-02-04T10:22:26;9.50;99.90
14053;DHT22;7101;51.600;7.310;2024-02-04T10:24:53;9.60;99.90
14053;DHT22;7101;51.600;7.310;2024-02-04T10:27:21;9.60;99.90
14053;DHT22;7101;51.600;7.310;2024-02-04T10:29:48;9.70;99.90
14053;DHT22;7101;51.600;7.310;2024-02-04T10:32:15;9.70;99.90
14053;DHT22;7101;51.600;7.310;2024-02-04T10:34:42;9.80;99.90
14053;DHT22;7101;51.600;7.310;2024-02-04T10:37:09;9.90;99.90
14053;DHT22;7101;51.600;7.310;2024-02-04T10:39:35;9.80;99.90
14053;DHT22;7101;51.600;7.310;2024-02-04T10:42:04;9.80;99.90
14053;DHT22;7101;51.600;7.310;2024-02-04T10:44:35;9.90;99.90
14053;DHT22;7101;51.600;7.310;2024-02-04T10:47:05;9.80;99.90
14053;DHT22;7101;51.600;7.310;2024-02-04T10:49:34;9.90;99.90
14053;DHT22;7101;51.600;7.310;2024-02-04T10:52:05;9.90;99.90
14053;DHT22;7101;51.600;7.310;2024-02-04T10:54:33;10.10;99.90
14053;DHT22;7101;51.600;7.310;2024-02-04T10:57:05;10.20;99.90
14053;DHT22;7101;51.600;7.310;2024-02-04T10:59:37;10.40;99.90
14053;DHT22;7101;51.600;7.310;2024-02-04T11:02:05;10.50;99.90
14053;DHT22;7101;51.600;7.310;2024-02-04T11:04:33;10.60;99.90
14053;DHT22;7101;51.600;7.310;2024-02-04T11:07:01;10.70;99.90
14053;DHT22;7101;51.600;7.310;2024-02-04T11:09:29;10.90;99.90
14053;DHT22;7101;51.600;7.310;2024-02-04T11:11:58;11.00;99.90
14053;DHT22;7101;51.600;7.310;2024-02-04T11:14:26;11.10;99.90
14053;DHT22;7101;51.600;7.310;2024-02-04T11:17:28;11.20;99.90
14053;DHT22;7101;51.600;7.310;2024-02-04T11:20:10;11.30;99.90
14053;DHT22;7101;51.600;7.310;2024-02-04T11:22:55;11.20;99.90
14053;DHT22;7101;51.600;7.310;2024-02-04T11:25:41;11.20;99.90
14053;DHT22;7101;51.600;7.310;2024-02-04T11:28:09;11.20;99.90
14053;DHT22;7101;51.600;7.310;2024-02-04T11:30:37;11.20;99.90
14053;DHT22;7101;51.600;7.310;2024-02-04T11:33:06;11.30;99.90
14053;DHT22;7101;51.600;7.310;2024-02-04T11:35:33;11.20;99.90
14053;DHT22;7101;51.600;7.310;2024-02-04T11:38:01;11.10;99.90
14053;DHT22;7101;51.600;7.310;2024-02-04T11:40:34;11.10;99.90
14053;DHT22;7101;51.600;7.310;2024-02-04T11:43:05;11.10;99.90
14053;DHT22;7101;51.600;7.310;2024-02-04T11:45:32;11.10;99.90
14053;DHT22;7101;51.600;7.310;2024-02-04T11:48:00;11.20;99.90
14053;DHT22;7101;51.600;7.310;2024-02-04T11:50:29;11.40;99.90
14053;DHT22;7101;51.600;7.310;2024-02-04T11:53:07;11.60;99.90
14053;DHT22;7101;51.600;7.310;2024-02-04T11:55:34;11.80;99.90
14053;DHT22;7101;51.600;7.310;2024-02-04T11:58:02;11.70;99.90
14053;DHT22;7101;51.600;7.310;2024-02-04T12:00:29;11.70;99.90
14053;DHT22;7101;51.600;7.310;2024-02-04T12:03:03;11.60;99.90
14053;DHT22;7101;51.600;7.310;2024-02-04T12:05:32;11.60;99.90
14053;DHT22;7101;51.600;7.310;2024-02-04T12:08:01;11.70;99.90
14053;DHT22;7101;51.600;7.310;2024-02-04T12:10:29;11.70;99.90
14053;DHT22;7101;51.600;7.310;2024-02-04T12:12:57;11.60;99.90
14053;DHT22;7101;51.600;7.310;2024-02-04T12:15:25;11.50;99.90
14053;DHT22;7101;51.600;7.310;2024-02-04T12:17:52;11.40;99.90
14053;DHT22;7101;51.600;7.310;2024-02-04T12:20:19;11.40;99.90
14053;DHT22;7101;51.600;7.310;2024-02-04T12:22:47;11.40;99.90
14053;DHT22;7101;51.600;7.310;2024-02-04T12:25:16;11.30;99.90
14053;DHT22;7101;51.600;7.310;2024-02-04T12:27:44;11.10;99.90
14053;DHT22;7101;51.600;7.310;2024-02-04T12:30:13;11.10;99.90
14053;DHT22;7101;51.600;7.310;2024-02-04T12:32:41;11.00;99.90
14053;DHT22;7101;51.600;7.310;2024-02-04T12:35:08;10.90;99.90
14053;DHT22;7101;51.600;7.310;2024-02-04T12:37:35;10.90;99.90
14053;DHT22;7101;51.600;7.310;2024-02-04T12:40:04;10.90;99.90
14053;DHT22;7101;51.600;7.310;2024-02-04T12:42:32;10.90;99.90
14053;DHT22;7101;51.600;7.310;2024-02-04T12:45:00;10.80;99.90
14053;DHT22;7101;51.600;7.310;2024-02-04T12:47:27;10.90;99.90
14053;DHT22;7101;51.600;7.310;2024-02-04T12:49:58;10.90;99.90
14053;DHT22;7101;51.600;7.310;2024-02-04T12:52:26;10.90;99.90
14053;DHT22;7101;51.600;7.310;2024-02-04T12:54:53;10.90;99.90
14053;DHT22;7101;51.600;7.310;2024-02-04T12:57:25;10.90;99.90
14053;DHT22;7101;51.600;7.310;2024-02-04T12:59:51;10.80;99.90
14053;DHT22;7101;51.600;7.310;2024-02-04T13:02:18;10.80;99.90
14053;DHT22;7101;51.600;7.310;2024-02-04T13:04:47;10.90;99.90
14053;DHT22;7101;51.600;7.310;2024-02-04T13:07:14;10.90;99.90
14053;DHT22;7101;51.600;7.310;2024-02-04T13:09:42;10.90;99.90
14053;DHT22;7101;51.600;7.310;2024-02-04T13:12:11;10.80;99.90
14053;DHT22;7101;51.600;7.310;2024-02-04T13:14:42;10.80;99.90
14053;DHT22;7101;51.600;7.310;2024-02-04T13:17:10;10.90;99.90
14053;DHT22;7101;51.600;7.310;2024-02-04T13:19:38;10.80;99.90
14053;DHT22;7101;51.600;7.310;2024-02-04T13:22:05;10.90;99.90
14053;DHT22;7101;51.600;7.310;2024-02-04T13:24:32;10.90;99.90
14053;DHT22;7101;51.600;7.310;2024-02-04T13:26:59;11.00;99.90
14053;DHT22;7101;51.600;7.310;2024-02-04T13:29:27;11.00;99.90
14053;DHT22;7101;51.600;7.310;2024-02-04T13:31:55;10.90;99.90
14053;DHT22;7101;51.600;7.310;2024-02-04T13:34:22;10.90;99.90
14053;DHT22;7101;51.600;7.310;2024-02-04T13:36:48;10.90;99.90
14053;DHT22;7101;51.600;7.310;2024-02-04T13:39:15;10.90;99.90
14053;DHT22;7101;51.600;7.310;2024-02-04T13:41:44;10.80;99.90
14053;DHT22;7101;51.600;7.310;2024-02-04T13:44:10;10.80;99.90
14053;DHT22;7101;51.600;7.310;2024-02-04T13:46:37;10.80;99.90
14053;DHT22;7101;51.600;7.310;2024-02-04T13:49:09;10.80;99.90
14053;DHT22;7101;51.600;7.310;2024-02-04T13:51:37;10.80;99.90
14053;DHT22;7101;51.600;7.310;2024-02-04T13:54:04;10.80;99.90
14053;DHT22;7101;51.600;7.310;2024-02-04T13:56:31;10.70;99.90
14053;DHT22;7101;51.600;7.310;2024-02-04T13:58:58;10.80;99.90
14053;DHT22;7101;51.600;7.310;2024-02-04T14:01:25;10.80;99.90
14053;DHT22;7101;51.600;7.310;2024-02-04T14:03:52;10.70;99.90
14053;DHT22;7101;51.600;7.310;2024-02-04T14:06:20;10.80;99.90
14053;DHT22;7101;51.600;7.310;2024-02-04T14:08:47;10.80;99.90
14053;DHT22;7101;51.600;7.310;2024-02-04T14:11:14;10.70;99.90
14053;DHT22;7101;51.600;7.310;2024-02-04T14:13:40;10.70;99.90
14053;DHT22;7101;51.600;7.310;2024-02-04T14:16:07;10.80;99.90
14053;DHT22;7101;51.600;7.310;2024-02-04T14:18:35;10.70;99.90
14053;DHT22;7101;51.600;7.310;2024-02-04T14:21:05;10.80;99.90
14053;DHT22;7101;51.600;7.310;2024-02-04T14:23:33;10.70;99.90
14053;DHT22;7101;51.600;7.310;2024-02-04T14:26:00;10.70;99.90
14053;DHT22;7101;51.600;7.310;2024-02-04T14:28:28;10.70;99.90
14053;DHT22;7101;51.600;7.310;2024-02-04T14:30:55;10.60;99.90
14053;DHT22;7101;51.600;7.310;2024-02-04T14:33:22;10.60;99.90
14053;DHT22;7101;51.600;7.310;2024-02-04T14:35:48;10.60;99.90
14053;DHT22;7101;51.600;7.310;2024-02-04T14:38:15;10.60;99.90
14053;DHT22;7101;51.600;7.310;2024-02-04T14:40:43;10.60;99.90
14053;DHT22;7101;51.600;7.310;2024-02-04T14:43:10;10.60;99.90
14053;DHT22;7101;51.600;7.310;2024-02-04T14:45:38;10.60;99.90
14053;DHT22;7101;51.600;7.310;2024-02-04T14:48:05;10.60;99.90
14053;DHT22;7101;51.600;7.310;2024-02-04T14:50:33;10.60;99.90
14053;DHT22;7101;51.600;7.310;2024-02-04T14:53:00;10.60;99.90
14053;DHT22;7101;51.600;7.310;2024-02-04T14:55:27;10.60;99.90
14053;DHT22;7101;51.600;7.310;2024-02-04T14:57:55;10.60;99.90
14053;DHT22;7101;51.600;7.310;2024-02-04T15:00:22;10.60;99.90
14053;DHT22;7101;51.600;7.310;2024-02-04T15:02:50;10.60;99.90
14053;DHT22;7101;51.600;7.310;2024-02-04T15:05:17;10.50;99.90
14053;DHT22;7101;51.600;7.310;2024-02-04T15:07:47;10.50;99.90
14053;DHT22;7101;51.600;7.310;2024-02-04T15:10:14;10.50;99.90
14053;DHT22;7101;51.600;7.310;2024-02-04T15:12:41;10.50;99.90
14053;DHT22;7101;51.600;7.310;2024-02-04T15:15:12;10.50;99.90
14053;DHT22;7101;51.600;7.310;2024-02-04T15:17:40;10.40;99.90
14053;DHT22;7101;51.600;7.310;2024-02-04T15:20:08;10.50;99.90
14053;DHT22;7101;51.600;7.310;2024-02-04T15:22:37;10.50;99.90
14053;DHT22;7101;51.600;7.310;2024-02-04T15:25:07;10.50;99.90
14053;DHT22;7101;51.600;7.310;2024-02-04T15:27:34;10.50;99.90
14053;DHT22;7101;51.600;7.310;2024-02-04T15:30:02;10.50;99.90
14053;DHT22;7101;51.600;7.310;2024-02-04T15:32:30;10.50;99.90
14053;DHT22;7101;51.600;7.310;2024-02-04T15:34:58;10.50;99.90
14053;DHT22;7101;51.600;7.310;2024-02-04T15:37:25;10.50;99.90
14053;DHT22;7101;51.600;7.310;2024-02-04T15:39:52;10.50;99.90
14053;DHT22;7101;51.600;7.310;2024-02-04T15:42:19;10.50;99.90
14053;DHT22;7101;51.600;7.310;2024-02-04T15:44:46;10.50;99.90
14053;DHT22;7101;51.600;7.310;2024-02-04T15:47:13;10.50;99.90
14053;DHT22;7101;51.600;7.310;2024-02-04T15:49:43;10.40;99.90
14053;DHT22;7101;51.600;7.310;2024-02-04T15:52:11;10.40;99.90